sensor_id;sensor_type;location;lat;lon;timestamp;P1;durP1;ratioP1;P2;durP2;ratioP2
4198;SDS011;2113;50.946;14.610;2023-05-21T00:01:58;39.60;;;26.88;;
4198;SDS011;2113;50.946;14.610;2023-05-21T00:04:27;42.33;;;27.95;;
4198;SDS011;2113;50.946;14.610;2023-05-21T00:06:55;39.33;;;25.77;;
4198;SDS011;2113;50.946;14.610;2023-05-21T00:09:24;43.00;;;24.42;;
4198;SDS011;2113;50.946;14.610;2023-05-21T00:11:52;38.67;;;23.23;;
4198;SDS011;2113;50.946;14.610;2023-05-21T00:14:20;43.30;;;26.30;;
4198;SDS011;2113;50.946;14.610;2023-05-21T00:16:49;44.78;;;26.52;;
4198;SDS011;2113;50.946;14.610;2023-05-21T00:19:19;42.53;;;24.55;;
4198;SDS011;2113;50.946;14.610;2023-05-21T00:21:48;39.22;;;27.33;;
4198;SDS011;2113;50.946;14.610;2023-05-21T00:24:16;42.55;;;25.10;;
4198;SDS011;2113;50.946;14.610;2023-05-21T00:26:45;49.25;;;25.48;;
4198;SDS011;2113;50.946;14.610;2023-05-21T00:29:13;41.78;;;25.67;;
4198;SDS011;2113;50.946;14.610;2023-05-21T00:31:41;45.03;;;26.13;;
4198;SDS011;2113;50.946;14.610;2023-05-21T00:34:11;40.47;;;25.88;;
4198;SDS011;2113;50.946;14.610;2023-05-21T00:36:42;44.40;;;26.63;;
4198;SDS011;2113;50.946;14.610;2023-05-21T00:39:12;46.17;;;26.58;;
4198;SDS011;2113;50.946;14.610;2023-05-21T00:41:40;46.03;;;26.10;;
4198;SDS011;2113;50.946;14.610;2023-05-21T00:44:12;44.17;;;25.58;;
4198;SDS011;2113;50.946;14.610;2023-05-21T00:46:42;45.58;;;25.95;;
4198;SDS011;2113;50.946;14.610;2023-05-21T00:49:11;41.58;;;23.95;;
4198;SDS011;2113;50.946;14.610;2023-05-21T00:51:41;43.28;;;24.60;;
4198;SDS011;2113;50.946;14.610;2023-05-21T00:54:10;38.30;;;23.67;;
4198;SDS011;2113;50.946;14.610;2023-05-21T00:56:39;36.88;;;23.25;;
4198;SDS011;2113;50.946;14.610;2023-05-21T00:59:08;45.47;;;24.45;;
4198;SDS011;2113;50.946;14.610;2023-05-21T01:01:36;36.75;;;22.30;;
4198;SDS011;2113;50.946;14.610;2023-05-21T01:04:04;43.95;;;24.15;;
4198;SDS011;2113;50.946;14.610;2023-05-21T01:06:32;42.75;;;24.02;;
4198;SDS011;2113;50.946;14.610;2023-05-21T01:09:02;42.17;;;25.48;;
4198;SDS011;2113;50.946;14.610;2023-05-21T01:11:36;44.05;;;26.27;;
4198;SDS011;2113;50.946;14.610;2023-05-21T01:14:07;42.40;;;25.30;;
4198;SDS011;2113;50.946;14.610;2023-05-21T01:16:38;45.25;;;26.98;;
4198;SDS011;2113;50.946;14.610;2023-05-21T01:19:09;47.22;;;27.17;;
4198;SDS011;2113;50.946;14.610;2023-05-21T01:21:41;45.72;;;26.48;;
4198;SDS011;2113;50.946;14.610;2023-05-21T01:24:14;47.25;;;26.63;;
4198;SDS011;2113;50.946;14.610;2023-05-21T01:26:42;45.50;;;26.35;;
4198;SDS011;2113;50.946;14.610;2023-05-21T01:29:12;43.72;;;26.35;;
4198;SDS011;2113;50.946;14.610;2023-05-21T01:31:45;41.30;;;25.65;;
4198;SDS011;2113;50.946;14.610;2023-05-21T01:34:23;36.80;;;24.50;;
4198;SDS011;2113;50.946;14.610;2023-05-21T01:36:56;48.33;;;26.10;;
4198;SDS011;2113;50.946;14.610;2023-05-21T01:39:31;43.35;;;24.00;;
4198;SDS011;2113;50.946;14.610;2023-05-21T01:42:06;45.15;;;27.17;;
4198;SDS011;2113;50.946;14.610;2023-05-21T01:44:37;48.75;;;27.40;;
4198;SDS011;2113;50.946;14.610;2023-05-21T01:47:07;48.95;;;28.23;;
4198;SDS011;2113;50.946;14.610;2023-05-21T01:49:37;43.03;;;26.05;;
4198;SDS011;2113;50.946;14.610;2023-05-21T01:52:05;44.92;;;25.48;;
4198;SDS011;2113;50.946;14.610;2023-05-21T01:54:36;41.67;;;25.55;;
4198;SDS011;2113;50.946;14.610;2023-05-21T01:57:05;43.10;;;23.50;;
4198;SDS011;2113;50.946;14.610;2023-05-21T01:59:34;42.25;;;24.90;;
4198;SDS011;2113;50.946;14.610;2023-05-21T02:02:03;46.38;;;26.38;;
4198;SDS011;2113;50.946;14.610;2023-05-21T02:04:32;47.20;;;26.38;;
4198;SDS011;2113;50.946;14.610;2023-05-21T02:07:00;37.53;;;22.85;;
4198;SDS011;2113;50.946;14.610;2023-05-21T02:09:29;43.03;;;27.35;;
4198;SDS011;2113;50.946;14.610;2023-05-21T02:11:59;37.42;;;23.60;;
4198;SDS011;2113;50.946;14.610;2023-05-21T02:14:27;36.75;;;23.58;;
4198;SDS011;2113;50.946;14.610;2023-05-21T02:16:56;44.13;;;23.85;;
4198;SDS011;2113;50.946;14.610;2023-05-21T02:19:24;33.58;;;22.67;;
4198;SDS011;2113;50.946;14.610;2023-05-21T02:21:53;42.25;;;23.63;;
4198;SDS011;2113;50.946;14.610;2023-05-21T02:24:21;40.47;;;24.02;;
4198;SDS011;2113;50.946;14.610;2023-05-21T02:26:50;37.30;;;23.30;;
4198;SDS011;2113;50.946;14.610;2023-05-21T02:29:20;41.55;;;23.20;;
4198;SDS011;2113;50.946;14.610;2023-05-21T02:31:48;38.50;;;24.90;;
4198;SDS011;2113;50.946;14.610;2023-05-21T02:34:17;33.40;;;21.95;;
4198;SDS011;2113;50.946;14.610;2023-05-21T02:36:46;36.55;;;23.48;;
4198;SDS011;2113;50.946;14.610;2023-05-21T02:39:18;35.42;;;23.85;;
4198;SDS011;2113;50.946;14.610;2023-05-21T02:41:46;39.40;;;24.80;;
4198;SDS011;2113;50.946;14.610;2023-05-21T02:44:14;39.92;;;22.42;;
4198;SDS011;2113;50.946;14.610;2023-05-21T02:46:46;42.25;;;26.88;;
4198;SDS011;2113;50.946;14.610;2023-05-21T02:49:16;42.75;;;23.23;;
4198;SDS011;2113;50.946;14.610;2023-05-21T02:51:45;37.05;;;20.88;;
4198;SDS011;2113;50.946;14.610;2023-05-21T02:54:14;36.35;;;23.13;;
4198;SDS011;2113;50.946;14.610;2023-05-21T02:56:42;40.65;;;24.42;;
4198;SDS011;2113;50.946;14.610;2023-05-21T02:59:10;35.72;;;20.83;;
4198;SDS011;2113;50.946;14.610;2023-05-21T03:01:39;36.20;;;23.02;;
4198;SDS011;2113;50.946;14.610;2023-05-21T03:04:10;36.35;;;22.45;;
4198;SDS011;2113;50.946;14.610;2023-05-21T03:06:39;43.70;;;24.90;;
4198;SDS011;2113;50.946;14.610;2023-05-21T03:09:07;36.95;;;23.63;;
4198;SDS011;2113;50.946;14.610;2023-05-21T03:11:35;43.33;;;24.60;;
4198;SDS011;2113;50.946;14.610;2023-05-21T03:14:03;35.97;;;23.27;;
4198;SDS011;2113;50.946;14.610;2023-05-21T03:16:33;42.50;;;24.13;;
4198;SDS011;2113;50.946;14.610;2023-05-21T03:19:03;38.65;;;23.65;;
4198;SDS011;2113;50.946;14.610;2023-05-21T03:21:33;39.95;;;24.75;;
4198;SDS011;2113;50.946;14.610;2023-05-21T03:24:02;41.85;;;23.95;;
4198;SDS011;2113;50.946;14.610;2023-05-21T03:26:31;39.40;;;22.40;;
4198;SDS011;2113;50.946;14.610;2023-05-21T03:28:59;38.00;;;20.95;;
4198;SDS011;2113;50.946;14.610;2023-05-21T03:31:28;39.60;;;23.10;;
4198;SDS011;2113;50.946;14.610;2023-05-21T03:34:16;34.70;;;20.15;;
4198;SDS011;2113;50.946;14.610;2023-05-21T03:36:48;33.03;;;21.35;;
4198;SDS011;2113;50.946;14.610;2023-05-21T03:39:17;30.10;;;20.55;;
4198;SDS011;2113;50.946;14.610;2023-05-21T03:41:47;32.47;;;20.60;;
4198;SDS011;2113;50.946;14.610;2023-05-21T03:44:22;36.88;;;22.60;;
4198;SDS011;2113;50.946;14.610;2023-05-21T03:46:59;32.38;;;21.05;;
4198;SDS011;2113;50.946;14.610;2023-05-21T03:49:33;36.15;;;23.48;;
4198;SDS011;2113;50.946;14.610;2023-05-21T03:52:04;39.03;;;24.65;;
4198;SDS011;2113;50.946;14.610;2023-05-21T03:54:32;37.45;;;23.35;;
4198;SDS011;2113;50.946;14.610;2023-05-21T03:57:04;37.40;;;23.77;;
4198;SDS011;2113;50.946;14.610;2023-05-21T03:59:33;35.38;;;23.63;;
4198;SDS011;2113;50.946;14.610;2023-05-21T04:02:01;41.00;;;23.48;;
4198;SDS011;2113;50.946;14.610;2023-05-21T04:04:31;37.72;;;22.80;;
4198;SDS011;2113;50.946;14.610;2023-05-21T04:07:00;36.58;;;24.77;;
4198;SDS011;2113;50.946;14.610;2023-05-21T04:09:31;42.63;;;25.67;;
4198;SDS011;2113;50.946;14.610;2023-05-21T04:12:02;40.13;;;22.98;;
4198;SDS011;2113;50.946;14.610;2023-05-21T04:14:30;34.13;;;23.15;;
4198;SDS011;2113;50.946;14.610;2023-05-21T04:17:00;34.85;;;22.98;;
4198;SDS011;2113;50.946;14.610;2023-05-21T04:19:31;32.80;;;21.20;;
4198;SDS011;2113;50.946;14.610;2023-05-21T04:22:01;38.15;;;23.40;;
4198;SDS011;2113;50.946;14.610;2023-05-21T04:24:31;36.28;;;23.55;;
4198;SDS011;2113;50.946;14.610;2023-05-21T04:27:10;32.67;;;20.67;;
4198;SDS011;2113;50.946;14.610;2023-05-21T04:29:40;37.33;;;22.45;;
4198;SDS011;2113;50.946;14.610;2023-05-21T04:32:09;36.65;;;23.27;;
4198;SDS011;2113;50.946;14.610;2023-05-21T04:34:40;34.00;;;22.92;;
4198;SDS011;2113;50.946;14.610;2023-05-21T04:37:08;34.47;;;21.83;;
4198;SDS011;2113;50.946;14.610;2023-05-21T04:39:39;34.80;;;23.08;;
4198;SDS011;2113;50.946;14.610;2023-05-21T04:42:08;34.83;;;21.92;;
4198;SDS011;2113;50.946;14.610;2023-05-21T04:44:37;36.58;;;24.40;;
4198;SDS011;2113;50.946;14.610;2023-05-21T04:47:08;37.85;;;24.23;;
4198;SDS011;2113;50.946;14.610;2023-05-21T04:49:38;39.95;;;23.70;;
4198;SDS011;2113;50.946;14.610;2023-05-21T04:52:06;35.95;;;22.45;;
4198;SDS011;2113;50.946;14.610;2023-05-21T04:54:35;35.42;;;23.50;;
4198;SDS011;2113;50.946;14.610;2023-05-21T04:57:06;37.28;;;24.40;;
4198;SDS011;2113;50.946;14.610;2023-05-21T04:59:34;36.63;;;24.50;;
4198;SDS011;2113;50.946;14.610;2023-05-21T05:02:03;43.00;;;26.98;;
4198;SDS011;2113;50.946;14.610;2023-05-21T05:04:31;44.05;;;25.10;;
4198;SDS011;2113;50.946;14.610;2023-05-21T05:06:59;38.28;;;24.20;;
4198;SDS011;2113;50.946;14.610;2023-05-21T05:09:28;39.08;;;25.85;;
4198;SDS011;2113;50.946;14.610;2023-05-21T05:11:57;44.03;;;24.92;;
4198;SDS011;2113;50.946;14.610;2023-05-21T05:14:27;37.03;;;25.70;;
4198;SDS011;2113;50.946;14.610;2023-05-21T05:16:55;42.63;;;27.92;;
4198;SDS011;2113;50.946;14.610;2023-05-21T05:19:27;43.55;;;27.02;;
4198;SDS011;2113;50.946;14.610;2023-05-21T05:21:55;38.80;;;25.55;;
4198;SDS011;2113;50.946;14.610;2023-05-21T05:24:24;37.42;;;22.90;;
4198;SDS011;2113;50.946;14.610;2023-05-21T05:26:53;38.58;;;26.17;;
4198;SDS011;2113;50.946;14.610;2023-05-21T05:29:21;39.60;;;26.10;;
4198;SDS011;2113;50.946;14.610;2023-05-21T05:31:51;35.78;;;25.77;;
4198;SDS011;2113;50.946;14.610;2023-05-21T05:34:19;40.47;;;25.90;;
4198;SDS011;2113;50.946;14.610;2023-05-21T05:36:48;41.35;;;26.65;;
4198;SDS011;2113;50.946;14.610;2023-05-21T05:39:16;33.45;;;23.50;;
4198;SDS011;2113;50.946;14.610;2023-05-21T05:41:45;34.88;;;23.45;;
4198;SDS011;2113;50.946;14.610;2023-05-21T05:44:14;38.50;;;25.52;;
4198;SDS011;2113;50.946;14.610;2023-05-21T05:46:43;37.40;;;26.75;;
4198;SDS011;2113;50.946;14.610;2023-05-21T05:49:14;33.72;;;22.02;;
4198;SDS011;2113;50.946;14.610;2023-05-21T05:51:42;37.90;;;23.40;;
4198;SDS011;2113;50.946;14.610;2023-05-21T05:54:11;33.50;;;23.05;;
4198;SDS011;2113;50.946;14.610;2023-05-21T05:56:40;38.25;;;24.65;;
4198;SDS011;2113;50.946;14.610;2023-05-21T05:59:08;33.45;;;22.90;;
4198;SDS011;2113;50.946;14.610;2023-05-21T06:01:37;34.35;;;22.73;;
4198;SDS011;2113;50.946;14.610;2023-05-21T06:04:09;40.60;;;25.83;;
4198;SDS011;2113;50.946;14.610;2023-05-21T06:06:39;35.67;;;25.25;;
4198;SDS011;2113;50.946;14.610;2023-05-21T06:09:08;31.00;;;23.48;;
4198;SDS011;2113;50.946;14.610;2023-05-21T06:11:37;31.15;;;23.13;;
4198;SDS011;2113;50.946;14.610;2023-05-21T06:14:05;35.28;;;25.95;;
4198;SDS011;2113;50.946;14.610;2023-05-21T06:16:33;40.28;;;27.38;;
4198;SDS011;2113;50.946;14.610;2023-05-21T06:19:03;39.30;;;24.73;;
4198;SDS011;2113;50.946;14.610;2023-05-21T06:21:31;37.33;;;26.98;;
4198;SDS011;2113;50.946;14.610;2023-05-21T06:24:02;33.13;;;24.75;;
4198;SDS011;2113;50.946;14.610;2023-05-21T06:26:31;32.53;;;23.77;;
4198;SDS011;2113;50.946;14.610;2023-05-21T06:29:01;33.20;;;22.20;;
4198;SDS011;2113;50.946;14.610;2023-05-21T06:31:30;35.38;;;23.02;;
4198;SDS011;2113;50.946;14.610;2023-05-21T06:33:59;32.75;;;22.20;;
4198;SDS011;2113;50.946;14.610;2023-05-21T06:36:28;37.38;;;27.00;;
4198;SDS011;2113;50.946;14.610;2023-05-21T06:38:58;35.97;;;26.85;;
4198;SDS011;2113;50.946;14.610;2023-05-21T06:41:28;36.70;;;24.30;;
4198;SDS011;2113;50.946;14.610;2023-05-21T06:44:00;32.45;;;24.65;;
4198;SDS011;2113;50.946;14.610;2023-05-21T06:47:00;34.28;;;24.95;;
4198;SDS011;2113;50.946;14.610;2023-05-21T06:49:29;36.42;;;24.48;;
4198;SDS011;2113;50.946;14.610;2023-05-21T06:51:59;29.80;;;21.85;;
4198;SDS011;2113;50.946;14.610;2023-05-21T06:54:28;31.98;;;22.33;;
4198;SDS011;2113;50.946;14.610;2023-05-21T06:56:57;28.05;;;21.85;;
4198;SDS011;2113;50.946;14.610;2023-05-21T06:59:25;26.63;;;21.90;;
4198;SDS011;2113;50.946;14.610;2023-05-21T07:01:54;23.33;;;19.23;;
4198;SDS011;2113;50.946;14.610;2023-05-21T07:04:22;29.33;;;19.27;;
4198;SDS011;2113;50.946;14.610;2023-05-21T07:06:50;49.53;;;38.58;;
4198;SDS011;2113;50.946;14.610;2023-05-21T07:09:19;24.52;;;19.83;;
4198;SDS011;2113;50.946;14.610;2023-05-21T07:11:48;27.15;;;20.58;;
4198;SDS011;2113;50.946;14.610;2023-05-21T07:14:19;27.90;;;21.08;;
4198;SDS011;2113;50.946;14.610;2023-05-21T07:16:49;24.40;;;19.17;;
4198;SDS011;2113;50.946;14.610;2023-05-21T07:19:18;23.88;;;17.63;;
4198;SDS011;2113;50.946;14.610;2023-05-21T07:21:49;24.30;;;17.58;;
4198;SDS011;2113;50.946;14.610;2023-05-21T07:24:16;22.92;;;19.50;;
4198;SDS011;2113;50.946;14.610;2023-05-21T07:26:45;23.43;;;18.57;;
4198;SDS011;2113;50.946;14.610;2023-05-21T07:29:13;24.20;;;18.87;;
4198;SDS011;2113;50.946;14.610;2023-05-21T07:31:43;22.10;;;17.03;;
4198;SDS011;2113;50.946;14.610;2023-05-21T07:34:12;18.00;;;16.10;;
4198;SDS011;2113;50.946;14.610;2023-05-21T07:36:40;20.20;;;16.10;;
4198;SDS011;2113;50.946;14.610;2023-05-21T07:39:09;19.02;;;15.93;;
4198;SDS011;2113;50.946;14.610;2023-05-21T07:41:37;19.15;;;16.42;;
4198;SDS011;2113;50.946;14.610;2023-05-21T07:44:07;22.33;;;17.77;;
4198;SDS011;2113;50.946;14.610;2023-05-21T07:46:39;23.38;;;17.13;;
4198;SDS011;2113;50.946;14.610;2023-05-21T07:49:11;20.50;;;16.95;;
4198;SDS011;2113;50.946;14.610;2023-05-21T07:51:44;22.40;;;17.63;;
4198;SDS011;2113;50.946;14.610;2023-05-21T07:54:14;19.95;;;16.55;;
4198;SDS011;2113;50.946;14.610;2023-05-21T07:56:43;20.60;;;17.23;;
4198;SDS011;2113;50.946;14.610;2023-05-21T07:59:24;19.10;;;15.73;;
4198;SDS011;2113;50.946;14.610;2023-05-21T08:01:52;18.37;;;16.13;;
4198;SDS011;2113;50.946;14.610;2023-05-21T08:04:22;20.97;;;16.90;;
4198;SDS011;2113;50.946;14.610;2023-05-21T08:06:51;22.33;;;17.97;;
4198;SDS011;2113;50.946;14.610;2023-05-21T08:09:19;18.70;;;16.70;;
4198;SDS011;2113;50.946;14.610;2023-05-21T08:11:47;20.87;;;18.40;;
4198;SDS011;2113;50.946;14.610;2023-05-21T08:14:15;21.23;;;18.50;;
4198;SDS011;2113;50.946;14.610;2023-05-21T08:16:44;21.30;;;18.20;;
4198;SDS011;2113;50.946;14.610;2023-05-21T08:19:13;22.77;;;19.90;;
4198;SDS011;2113;50.946;14.610;2023-05-21T08:21:43;25.27;;;20.25;;
4198;SDS011;2113;50.946;14.610;2023-05-21T08:24:12;21.38;;;17.67;;
4198;SDS011;2113;50.946;14.610;2023-05-21T08:26:40;22.47;;;18.00;;
4198;SDS011;2113;50.946;14.610;2023-05-21T08:29:10;19.53;;;17.53;;
4198;SDS011;2113;50.946;14.610;2023-05-21T08:31:39;20.67;;;18.23;;
4198;SDS011;2113;50.946;14.610;2023-05-21T08:34:07;22.13;;;17.80;;
4198;SDS011;2113;50.946;14.610;2023-05-21T08:36:46;20.33;;;17.17;;
4198;SDS011;2113;50.946;14.610;2023-05-21T08:39:44;22.53;;;17.83;;
4198;SDS011;2113;50.946;14.610;2023-05-21T08:42:14;21.13;;;17.90;;
4198;SDS011;2113;50.946;14.610;2023-05-21T08:45:03;20.80;;;17.97;;
4198;SDS011;2113;50.946;14.610;2023-05-21T08:47:33;17.70;;;15.80;;
4198;SDS011;2113;50.946;14.610;2023-05-21T08:50:04;17.83;;;15.93;;
4198;SDS011;2113;50.946;14.610;2023-05-21T08:52:37;19.43;;;17.00;;
4198;SDS011;2113;50.946;14.610;2023-05-21T08:55:06;20.13;;;18.13;;
4198;SDS011;2113;50.946;14.610;2023-05-21T08:57:37;20.57;;;17.33;;
4198;SDS011;2113;50.946;14.610;2023-05-21T09:00:12;22.77;;;19.50;;
4198;SDS011;2113;50.946;14.610;2023-05-21T09:02:42;18.23;;;16.30;;
4198;SDS011;2113;50.946;14.610;2023-05-21T09:05:13;20.80;;;17.43;;
4198;SDS011;2113;50.946;14.610;2023-05-21T09:07:46;21.97;;;18.43;;
4198;SDS011;2113;50.946;14.610;2023-05-21T09:10:32;19.87;;;17.03;;
4198;SDS011;2113;50.946;14.610;2023-05-21T09:13:04;20.87;;;18.50;;
4198;SDS011;2113;50.946;14.610;2023-05-21T09:15:33;19.23;;;17.00;;
4198;SDS011;2113;50.946;14.610;2023-05-21T09:18:03;21.67;;;18.30;;
4198;SDS011;2113;50.946;14.610;2023-05-21T09:20:39;20.00;;;17.73;;
4198;SDS011;2113;50.946;14.610;2023-05-21T09:23:11;20.33;;;18.10;;
4198;SDS011;2113;50.946;14.610;2023-05-21T09:25:45;30.63;;;19.83;;
4198;SDS011;2113;50.946;14.610;2023-05-21T09:28:29;19.07;;;17.07;;
4198;SDS011;2113;50.946;14.610;2023-05-21T09:30:57;21.30;;;17.67;;
4198;SDS011;2113;50.946;14.610;2023-05-21T09:33:31;22.07;;;18.47;;
4198;SDS011;2113;50.946;14.610;2023-05-21T09:36:01;22.60;;;17.30;;
4198;SDS011;2113;50.946;14.610;2023-05-21T09:38:32;17.47;;;15.67;;
4198;SDS011;2113;50.946;14.610;2023-05-21T09:41:03;19.63;;;15.87;;
4198;SDS011;2113;50.946;14.610;2023-05-21T09:43:33;19.00;;;17.00;;
4198;SDS011;2113;50.946;14.610;2023-05-21T09:46:01;20.60;;;14.97;;
4198;SDS011;2113;50.946;14.610;2023-05-21T09:48:32;19.57;;;16.70;;
4198;SDS011;2113;50.946;14.610;2023-05-21T09:51:12;18.13;;;15.97;;
4198;SDS011;2113;50.946;14.610;2023-05-21T09:53:44;18.63;;;15.73;;
4198;SDS011;2113;50.946;14.610;2023-05-21T09:56:16;20.33;;;18.07;;
4198;SDS011;2113;50.946;14.610;2023-05-21T09:58:52;18.50;;;16.57;;
4198;SDS011;2113;50.946;14.610;2023-05-21T10:01:22;21.80;;;18.53;;
4198;SDS011;2113;50.946;14.610;2023-05-21T10:03:53;20.23;;;17.80;;
4198;SDS011;2113;50.946;14.610;2023-05-21T10:06:23;19.60;;;17.50;;
4198;SDS011;2113;50.946;14.610;2023-05-21T10:08:54;22.13;;;19.10;;
4198;SDS011;2113;50.946;14.610;2023-05-21T10:11:29;23.10;;;18.30;;
4198;SDS011;2113;50.946;14.610;2023-05-21T10:13:59;18.93;;;17.00;;
4198;SDS011;2113;50.946;14.610;2023-05-21T10:16:33;20.00;;;17.90;;
4198;SDS011;2113;50.946;14.610;2023-05-21T10:19:02;18.70;;;15.90;;
4198;SDS011;2113;50.946;14.610;2023-05-21T10:21:31;21.17;;;16.60;;
4198;SDS011;2113;50.946;14.610;2023-05-21T10:24:02;17.83;;;15.60;;
4198;SDS011;2113;50.946;14.610;2023-05-21T10:26:31;16.13;;;14.45;;
4198;SDS011;2113;50.946;14.610;2023-05-21T10:28:59;16.13;;;14.47;;
4198;SDS011;2113;50.946;14.610;2023-05-21T10:31:29;14.70;;;13.07;;
4198;SDS011;2113;50.946;14.610;2023-05-21T10:33:59;15.20;;;12.37;;
4198;SDS011;2113;50.946;14.610;2023-05-21T10:36:29;15.23;;;13.13;;
4198;SDS011;2113;50.946;14.610;2023-05-21T10:38:59;16.23;;;14.50;;
4198;SDS011;2113;50.946;14.610;2023-05-21T10:41:32;18.27;;;15.57;;
4198;SDS011;2113;50.946;14.610;2023-05-21T10:44:09;15.47;;;13.90;;
4198;SDS011;2113;50.946;14.610;2023-05-21T10:46:58;15.60;;;13.70;;
4198;SDS011;2113;50.946;14.610;2023-05-21T10:52:33;16.73;;;14.00;;
4198;SDS011;2113;50.946;14.610;2023-05-21T10:55:12;14.33;;;11.90;;
4198;SDS011;2113;50.946;14.610;2023-05-21T10:58:01;17.08;;;12.98;;
4198;SDS011;2113;50.946;14.610;2023-05-21T11:00:50;15.10;;;13.10;;
4198;SDS011;2113;50.946;14.610;2023-05-21T11:03:21;17.13;;;14.60;;
4198;SDS011;2113;50.946;14.610;2023-05-21T11:05:50;18.00;;;13.70;;
4198;SDS011;2113;50.946;14.610;2023-05-21T11:08:21;17.83;;;15.77;;
4198;SDS011;2113;50.946;14.610;2023-05-21T11:10:50;17.40;;;14.00;;
4198;SDS011;2113;50.946;14.610;2023-05-21T11:13:21;15.70;;;13.47;;
4198;SDS011;2113;50.946;14.610;2023-05-21T11:16:02;18.73;;;15.13;;
4198;SDS011;2113;50.946;14.610;2023-05-21T11:21:28;16.40;;;13.73;;
4198;SDS011;2113;50.946;14.610;2023-05-21T11:24:06;17.75;;;15.90;;
4198;SDS011;2113;50.946;14.610;2023-05-21T11:29:39;19.48;;;16.40;;
4198;SDS011;2113;50.946;14.610;2023-05-21T11:32:10;17.48;;;15.60;;
4198;SDS011;2113;50.946;14.610;2023-05-21T11:34:46;20.98;;;16.38;;
4198;SDS011;2113;50.946;14.610;2023-05-21T11:37:25;17.20;;;15.18;;
4198;SDS011;2113;50.946;14.610;2023-05-21T11:44:36;17.73;;;15.45;;
4198;SDS011;2113;50.946;14.610;2023-05-21T11:47:07;18.30;;;15.75;;
4198;SDS011;2113;50.946;14.610;2023-05-21T11:49:37;18.65;;;13.68;;
4198;SDS011;2113;50.946;14.610;2023-05-21T11:52:06;17.42;;;15.52;;
4198;SDS011;2113;50.946;14.610;2023-05-21T11:54:38;17.70;;;15.80;;
4198;SDS011;2113;50.946;14.610;2023-05-21T11:57:07;21.10;;;16.33;;
4198;SDS011;2113;50.946;14.610;2023-05-21T11:59:35;23.20;;;19.55;;
4198;SDS011;2113;50.946;14.610;2023-05-21T12:02:04;24.00;;;20.05;;
4198;SDS011;2113;50.946;14.610;2023-05-21T12:04:34;22.48;;;19.05;;
4198;SDS011;2113;50.946;14.610;2023-05-21T12:07:03;21.02;;;18.38;;
4198;SDS011;2113;50.946;14.610;2023-05-21T12:09:37;20.92;;;18.67;;
4198;SDS011;2113;50.946;14.610;2023-05-21T12:12:06;22.17;;;19.40;;
4198;SDS011;2113;50.946;14.610;2023-05-21T12:14:36;27.23;;;19.52;;
4198;SDS011;2113;50.946;14.610;2023-05-21T12:17:04;22.25;;;19.90;;
4198;SDS011;2113;50.946;14.610;2023-05-21T12:19:36;24.23;;;19.45;;
4198;SDS011;2113;50.946;14.610;2023-05-21T12:22:05;21.08;;;18.80;;
4198;SDS011;2113;50.946;14.610;2023-05-21T12:24:36;21.90;;;16.60;;
4198;SDS011;2113;50.946;14.610;2023-05-21T12:30:24;15.33;;;11.30;;
4198;SDS011;2113;50.946;14.610;2023-05-21T12:32:56;11.70;;;8.75;;
4198;SDS011;2113;50.946;14.610;2023-05-21T12:35:26;9.65;;;8.57;;
4198;SDS011;2113;50.946;14.610;2023-05-21T12:37:55;10.43;;;7.93;;
4198;SDS011;2113;50.946;14.610;2023-05-21T12:40:33;9.52;;;7.93;;
4198;SDS011;2113;50.946;14.610;2023-05-21T12:43:04;8.90;;;6.57;;
4198;SDS011;2113;50.946;14.610;2023-05-21T12:45:32;7.27;;;6.37;;
4198;SDS011;2113;50.946;14.610;2023-05-21T12:48:02;9.50;;;5.90;;
4198;SDS011;2113;50.946;14.610;2023-05-21T12:50:33;7.47;;;6.13;;
4198;SDS011;2113;50.946;14.610;2023-05-21T12:53:02;5.70;;;4.90;;
4198;SDS011;2113;50.946;14.610;2023-05-21T12:55:32;7.60;;;5.90;;
4198;SDS011;2113;50.946;14.610;2023-05-21T12:58:04;5.53;;;4.90;;
4198;SDS011;2113;50.946;14.610;2023-05-21T13:00:35;5.30;;;4.70;;
4198;SDS011;2113;50.946;14.610;2023-05-21T13:03:04;6.70;;;5.80;;
4198;SDS011;2113;50.946;14.610;2023-05-21T13:05:34;7.00;;;5.67;;
4198;SDS011;2113;50.946;14.610;2023-05-21T13:08:07;8.53;;;6.83;;
4198;SDS011;2113;50.946;14.610;2023-05-21T13:10:36;8.23;;;7.43;;
4198;SDS011;2113;50.946;14.610;2023-05-21T13:13:04;11.00;;;9.30;;
4198;SDS011;2113;50.946;14.610;2023-05-21T13:15:33;12.37;;;10.00;;
4198;SDS011;2113;50.946;14.610;2023-05-21T13:18:01;10.67;;;9.57;;
4198;SDS011;2113;50.946;14.610;2023-05-21T13:20:31;13.17;;;9.30;;
4198;SDS011;2113;50.946;14.610;2023-05-21T13:23:01;12.67;;;9.87;;
4198;SDS011;2113;50.946;14.610;2023-05-21T13:25:33;13.07;;;10.27;;
4198;SDS011;2113;50.946;14.610;2023-05-21T13:28:01;11.80;;;10.20;;
4198;SDS011;2113;50.946;14.610;2023-05-21T13:30:31;16.53;;;12.00;;
4198;SDS011;2113;50.946;14.610;2023-05-21T13:33:00;14.87;;;13.40;;
4198;SDS011;2113;50.946;14.610;2023-05-21T13:35:32;16.10;;;11.67;;
4198;SDS011;2113;50.946;14.610;2023-05-21T13:38:02;13.75;;;9.82;;
4198;SDS011;2113;50.946;14.610;2023-05-21T13:40:30;12.07;;;10.87;;
4198;SDS011;2113;50.946;14.610;2023-05-21T13:42:59;14.37;;;10.53;;
4198;SDS011;2113;50.946;14.610;2023-05-21T13:45:27;11.40;;;9.77;;
4198;SDS011;2113;50.946;14.610;2023-05-21T13:47:55;12.18;;;9.30;;
4198;SDS011;2113;50.946;14.610;2023-05-21T13:50:25;14.27;;;9.55;;
4198;SDS011;2113;50.946;14.610;2023-05-21T13:52:53;12.40;;;8.70;;
4198;SDS011;2113;50.946;14.610;2023-05-21T13:55:23;13.25;;;9.45;;
4198;SDS011;2113;50.946;14.610;2023-05-21T13:57:55;9.68;;;8.48;;
4198;SDS011;2113;50.946;14.610;2023-05-21T14:00:25;10.13;;;9.02;;
4198;SDS011;2113;50.946;14.610;2023-05-21T14:02:53;10.05;;;8.20;;
4198;SDS011;2113;50.946;14.610;2023-05-21T14:05:21;8.80;;;7.57;;
4198;SDS011;2113;50.946;14.610;2023-05-21T14:07:50;9.18;;;8.20;;
4198;SDS011;2113;50.946;14.610;2023-05-21T14:10:18;8.93;;;7.55;;
4198;SDS011;2113;50.946;14.610;2023-05-21T14:12:48;8.73;;;7.00;;
4198;SDS011;2113;50.946;14.610;2023-05-21T14:15:17;9.50;;;7.65;;
4198;SDS011;2113;50.946;14.610;2023-05-21T14:17:45;9.07;;;6.80;;
4198;SDS011;2113;50.946;14.610;2023-05-21T14:20:13;9.10;;;6.75;;
4198;SDS011;2113;50.946;14.610;2023-05-21T14:22:42;7.43;;;6.50;;
4198;SDS011;2113;50.946;14.610;2023-05-21T14:25:10;10.25;;;7.70;;
4198;SDS011;2113;50.946;14.610;2023-05-21T14:27:38;12.05;;;8.10;;
4198;SDS011;2113;50.946;14.610;2023-05-21T14:30:08;8.75;;;7.50;;
4198;SDS011;2113;50.946;14.610;2023-05-21T14:32:37;11.50;;;8.40;;
4198;SDS011;2113;50.946;14.610;2023-05-21T14:37:59;9.00;;;7.70;;
4198;SDS011;2113;50.946;14.610;2023-05-21T14:40:27;9.15;;;7.65;;
4198;SDS011;2113;50.946;14.610;2023-05-21T14:42:56;17.13;;;9.07;;
4198;SDS011;2113;50.946;14.610;2023-05-21T14:45:26;10.05;;;8.10;;
4198;SDS011;2113;50.946;14.610;2023-05-21T14:47:54;10.30;;;7.97;;
4198;SDS011;2113;50.946;14.610;2023-05-21T14:50:22;9.32;;;7.85;;
4198;SDS011;2113;50.946;14.610;2023-05-21T14:52:51;9.88;;;7.50;;
4198;SDS011;2113;50.946;14.610;2023-05-21T14:55:19;12.10;;;7.90;;
4198;SDS011;2113;50.946;14.610;2023-05-21T14:57:48;11.45;;;8.13;;
4198;SDS011;2113;50.946;14.610;2023-05-21T15:00:16;10.98;;;8.88;;
4198;SDS011;2113;50.946;14.610;2023-05-21T15:02:46;10.57;;;8.23;;
4198;SDS011;2113;50.946;14.610;2023-05-21T15:05:15;11.05;;;8.07;;
4198;SDS011;2113;50.946;14.610;2023-05-21T15:07:44;9.98;;;7.55;;
4198;SDS011;2113;50.946;14.610;2023-05-21T15:10:12;9.68;;;7.85;;
4198;SDS011;2113;50.946;14.610;2023-05-21T15:12:44;9.30;;;8.27;;
4198;SDS011;2113;50.946;14.610;2023-05-21T15:15:12;7.93;;;6.82;;
4198;SDS011;2113;50.946;14.610;2023-05-21T15:17:42;10.95;;;7.38;;